createdAt,value
2018-12-17T00:00:17.231Z,34.20
2018-12-17T00:02:47.491Z,42.48
2018-12-17T00:05:15.824Z,43.38
2018-12-17T00:07:45.587Z,45.70
2018-12-17T00:10:13.803Z,35.48
2018-12-17T00:12:43.365Z,85.07
2018-12-17T00:15:11.705Z,39.40
2018-12-17T00:17:41.677Z,34.80
2018-12-17T00:20:10.500Z,35.80
2018-12-17T00:22:40.773Z,43.75
2018-12-17T00:25:09.102Z,46.20
2018-12-17T00:27:38.752Z,45.48
2018-12-17T00:30:07.154Z,40.03
2018-12-17T00:32:36.707Z,35.40
2018-12-17T00:35:05.336Z,45.20
2018-12-17T00:37:35.086Z,30.05
2018-12-17T00:40:05.402Z,31.12
2018-12-17T00:42:35.253Z,29.80
2018-12-17T00:45:04.162Z,27.77
2018-12-17T00:47:33.945Z,27.67
2018-12-17T00:50:02.170Z,26.50
2018-12-17T00:52:31.930Z,30.32
2018-12-17T00:55:00.160Z,30.68
2018-12-17T00:57:28.638Z,37.58
2018-12-17T00:59:56.838Z,29.77
2018-12-17T01:02:26.522Z,37.08
2018-12-17T01:04:54.873Z,36.33
2018-12-17T01:07:26.450Z,28.55
2018-12-17T01:09:54.681Z,49.63
2018-12-17T01:12:22.946Z,31.15
2018-12-17T01:14:51.255Z,48.63
2018-12-17T01:17:19.691Z,48.17
2018-12-17T01:19:47.933Z,43.60
2018-12-17T01:22:18.242Z,27.07
2018-12-17T01:24:46.461Z,25.17
2018-12-17T01:27:16.315Z,27.32
2018-12-17T01:29:44.727Z,31.23
2018-12-17T01:32:12.980Z,26.90
2018-12-17T01:34:41.247Z,28.38
2018-12-17T01:37:09.459Z,33.53
2018-12-17T01:39:37.870Z,31.77
2018-12-17T01:42:08.475Z,39.03
2018-12-17T01:44:36.995Z,29.23
2018-12-17T01:47:06.877Z,30.37
2018-12-17T01:49:35.162Z,33.92
2018-12-17T01:52:03.409Z,39.08
2018-12-17T01:54:31.696Z,41.68
2018-12-17T01:56:59.960Z,31.97
2018-12-17T01:59:28.214Z,47.25
2018-12-17T02:01:56.550Z,30.57
2018-12-17T02:04:25.330Z,39.60
2018-12-17T02:06:53.549Z,35.90
2018-12-17T02:09:21.939Z,40.10
2018-12-17T02:11:50.289Z,31.82
2018-12-17T02:14:20.680Z,41.68
2018-12-17T02:16:50.984Z,46.75
2018-12-17T02:19:21.280Z,32.17
2018-12-17T02:21:51.518Z,35.60
2018-12-17T02:24:21.804Z,44.85
2018-12-17T02:26:51.546Z,51.77
2018-12-17T02:29:19.750Z,35.20
2018-12-17T02:31:49.524Z,32.13
2018-12-17T02:34:17.914Z,35.78
2018-12-17T02:36:46.254Z,31.50
2018-12-17T02:39:14.615Z,32.17
2018-12-17T02:41:44.865Z,34.20
2018-12-17T02:44:13.603Z,33.80
2018-12-17T02:46:43.474Z,32.48
2018-12-17T02:49:12.006Z,34.90
2018-12-17T02:51:40.248Z,53.23
2018-12-17T02:54:08.475Z,33.98
2018-12-17T02:56:38.367Z,53.55
2018-12-17T02:59:06.589Z,43.70
2018-12-17T03:01:36.250Z,31.57
2018-12-17T03:04:04.583Z,31.77
2018-12-17T03:06:34.846Z,30.60
2018-12-17T03:09:03.170Z,31.50
2018-12-17T03:11:33.422Z,29.95
2018-12-17T03:14:01.755Z,29.52
2018-12-17T03:16:32.013Z,30.48
2018-12-17T03:19:00.346Z,28.25
2018-12-17T03:21:30.408Z,32.73
2018-12-17T03:23:58.621Z,27.55
2018-12-17T03:26:28.186Z,27.85
2018-12-17T03:28:56.518Z,30.72
2018-12-17T03:31:24.896Z,28.67
2018-12-17T03:33:53.258Z,30.50
2018-12-17T03:36:21.485Z,28.75
2018-12-17T03:38:49.838Z,29.30
2018-12-17T03:41:19.566Z,31.93
2018-12-17T03:43:48.025Z,32.65
2018-12-17T03:46:17.758Z,29.42
2018-12-17T03:48:46.008Z,39.65
2018-12-17T03:51:14.213Z,30.25
2018-12-17T03:53:42.470Z,30.25
2018-12-17T03:56:12.020Z,40.55
2018-12-17T03:58:40.264Z,48.48
2018-12-17T04:01:08.482Z,30.97
2018-12-17T04:03:38.741Z,39.65
2018-12-17T04:06:06.981Z,39.50
2018-12-17T04:08:35.222Z,32.80
2018-12-17T04:11:04.953Z,49.75
2018-12-17T04:16:15.727Z,39.80
2018-12-17T04:18:43.982Z,39.18
2018-12-17T04:21:12.183Z,53.83
2018-12-17T04:23:40.434Z,37.85
2018-12-17T04:26:10.153Z,39.73
2018-12-17T04:28:38.393Z,42.43
2018-12-17T04:31:06.618Z,42.83
2018-12-17T04:33:34.973Z,34.98
2018-12-17T04:36:05.190Z,33.40
2018-12-17T04:38:33.426Z,35.35
2018-12-17T04:41:01.639Z,67.37
2018-12-17T04:43:30.198Z,33.73
2018-12-17T04:45:59.662Z,33.15
2018-12-17T04:48:28.022Z,31.50
2018-12-17T04:50:57.645Z,31.02
2018-12-17T04:53:25.891Z,31.95
2018-12-17T04:55:54.109Z,39.85
2018-12-17T04:58:22.351Z,30.10
2018-12-17T05:00:51.985Z,29.05
2018-12-17T05:03:20.228Z,30.10
2018-12-17T05:05:49.762Z,31.15
2018-12-17T05:08:18.007Z,31.52
2018-12-17T05:10:46.246Z,28.62
2018-12-17T05:13:14.453Z,30.62
2018-12-17T05:15:42.691Z,28.57
2018-12-17T05:18:10.927Z,27.17
2018-12-17T05:20:40.485Z,33.23
2018-12-17T05:23:08.700Z,37.85
2018-12-17T05:25:36.931Z,27.20
2018-12-17T05:28:05.172Z,36.70
2018-12-17T05:30:33.410Z,26.90
2018-12-17T05:33:02.618Z,30.12
2018-12-17T05:35:30.858Z,28.02
2018-12-17T05:37:59.078Z,27.58
2018-12-17T05:40:28.646Z,27.55
2018-12-17T05:42:56.847Z,27.80
2018-12-17T05:45:25.093Z,27.42
2018-12-17T05:47:53.314Z,28.67
2018-12-17T05:50:21.550Z,27.10
2018-12-17T05:52:51.095Z,25.75
2018-12-17T05:55:19.336Z,27.95
2018-12-17T05:57:48.879Z,26.68
2018-12-17T06:00:17.122Z,29.55
2018-12-17T06:02:46.558Z,28.27
2018-12-17T06:05:14.838Z,30.23
2018-12-17T06:07:44.293Z,33.53
2018-12-17T06:10:12.533Z,31.30
2018-12-17T06:12:43.031Z,32.40
2018-12-17T06:15:11.239Z,27.95
2018-12-17T06:17:40.704Z,31.37
2018-12-17T06:20:08.915Z,41.63
2018-12-17T06:22:38.476Z,34.48
2018-12-17T06:25:06.678Z,29.57
2018-12-17T06:27:36.892Z,30.60
2018-12-17T06:30:06.482Z,26.20
2018-12-17T06:32:36.449Z,28.52
2018-12-17T06:35:05.165Z,26.50
2018-12-17T06:37:34.853Z,27.45
2018-12-17T06:40:10.027Z,24.87
2018-12-17T06:42:35.875Z,24.40
2018-12-17T06:45:05.333Z,23.83
2018-12-17T06:47:35.097Z,23.67
2018-12-17T06:50:03.918Z,22.65
2018-12-17T06:52:33.682Z,22.22
2018-12-17T06:55:01.899Z,23.67
2018-12-17T06:57:31.485Z,28.52
2018-12-17T06:59:59.689Z,30.55
2018-12-17T07:02:28.038Z,47.70
2018-12-17T07:04:56.247Z,35.52
2018-12-17T07:07:25.881Z,47.73
2018-12-17T07:09:54.082Z,35.15
2018-12-17T07:12:23.650Z,37.53
2018-12-17T07:14:51.854Z,32.55
2018-12-17T07:17:21.432Z,57.50
2018-12-17T07:19:49.663Z,36.93
2018-12-17T07:22:19.335Z,37.30
2018-12-17T07:24:47.745Z,58.73
2018-12-17T07:27:15.961Z,59.13
2018-12-17T07:29:49.792Z,39.35
2018-12-17T07:32:15.841Z,35.55
2018-12-17T07:34:44.281Z,35.05
2018-12-17T07:37:13.715Z,56.00
2018-12-17T07:39:42.362Z,57.58
2018-12-17T07:42:10.600Z,65.10
2018-12-17T07:44:38.829Z,35.23
2018-12-17T07:47:08.361Z,36.55
2018-12-17T07:49:36.590Z,62.93
2018-12-17T07:52:05.221Z,54.60
2018-12-17T07:54:33.598Z,46.30
2018-12-17T07:57:03.166Z,40.92
2018-12-17T07:59:31.542Z,53.02
2018-12-17T08:01:59.763Z,59.98
2018-12-17T08:04:28.011Z,35.95
2018-12-17T08:06:57.658Z,39.92
2018-12-17T08:09:25.905Z,47.60
2018-12-17T08:11:54.181Z,47.15
2018-12-17T08:14:22.550Z,68.57
2018-12-17T08:16:51.373Z,60.83
2018-12-17T08:19:19.627Z,43.08
2018-12-17T08:21:49.211Z,44.45
2018-12-17T08:24:17.443Z,40.17
2018-12-17T08:26:47.169Z,34.80
2018-12-17T08:29:15.406Z,32.35
2018-12-17T08:31:44.945Z,32.42
2018-12-17T08:34:13.196Z,40.10
2018-12-17T08:36:41.417Z,39.20
2018-12-17T08:39:09.625Z,41.05
2018-12-17T08:41:40.079Z,37.65
2018-12-17T08:44:08.322Z,36.05
2018-12-17T08:46:38.087Z,31.60
2018-12-17T08:49:06.289Z,41.75
2018-12-17T08:51:35.129Z,39.35
2018-12-17T08:54:03.327Z,31.40
2018-12-17T08:56:32.986Z,29.42
2018-12-17T08:59:01.215Z,29.40
2018-12-17T09:01:31.146Z,31.27
2018-12-17T09:03:59.422Z,29.80
2018-12-17T09:06:29.134Z,27.55
2018-12-17T09:08:57.378Z,26.07
2018-12-17T09:11:27.358Z,30.72
2018-12-17T09:13:55.581Z,30.00
2018-12-17T09:16:25.149Z,30.47
2018-12-17T09:18:53.482Z,27.80
2018-12-17T09:21:23.164Z,26.67
2018-12-17T09:23:52.058Z,25.72
2018-12-17T09:26:20.877Z,29.50
2018-12-17T09:28:49.094Z,24.12
2018-12-17T09:31:18.770Z,26.60
2018-12-17T09:33:47.012Z,25.70
2018-12-17T09:36:16.779Z,25.32
2018-12-17T09:38:45.186Z,24.23
2018-12-17T09:41:14.774Z,23.35
2018-12-17T09:43:43.000Z,22.73
2018-12-17T09:46:12.572Z,24.10
2018-12-17T09:48:40.843Z,21.62
2018-12-17T09:51:10.553Z,19.90
2018-12-17T09:53:40.192Z,18.23
2018-12-17T09:56:09.770Z,18.57
2018-12-17T09:58:37.978Z,17.73
2018-12-17T10:01:06.218Z,16.93
2018-12-17T10:03:35.034Z,14.50
2018-12-17T10:06:04.696Z,15.37
2018-12-17T10:08:35.338Z,13.73
2018-12-17T10:11:04.899Z,13.63
2018-12-17T10:13:33.533Z,18.70
2018-12-17T10:16:01.773Z,14.47
2018-12-17T10:18:36.634Z,15.40
2018-12-17T10:21:00.525Z,16.03
2018-12-17T10:23:28.734Z,11.47
2018-12-17T10:25:58.314Z,12.43
2018-12-17T10:28:26.525Z,13.17
2018-12-17T10:30:54.790Z,13.10
2018-12-17T10:33:23.048Z,12.53
2018-12-17T10:35:52.793Z,15.50
2018-12-17T10:38:21.973Z,14.73
2018-12-17T10:40:51.414Z,14.60
2018-12-17T10:43:19.670Z,16.27
2018-12-17T10:45:47.907Z,16.23
2018-12-17T10:48:16.196Z,16.13
2018-12-17T10:50:45.824Z,15.33
2018-12-17T10:53:14.074Z,15.50
2018-12-17T10:55:42.365Z,14.70
2018-12-17T10:58:10.671Z,15.20
2018-12-17T11:00:45.931Z,16.03
2018-12-17T11:03:15.306Z,16.03
2018-12-17T11:05:44.143Z,13.73
2018-12-17T11:08:12.389Z,16.97
2018-12-17T11:10:40.762Z,12.23
2018-12-17T11:13:09.238Z,10.90
2018-12-17T11:15:38.865Z,10.47
2018-12-17T11:18:07.114Z,11.07
2018-12-17T11:20:35.589Z,10.53
2018-12-17T11:23:04.452Z,10.93
2018-12-17T11:25:33.490Z,11.33
2018-12-17T11:28:01.866Z,9.87
2018-12-17T11:30:31.597Z,12.23
2018-12-17T11:32:59.828Z,11.47
2018-12-17T11:35:29.458Z,10.40
2018-12-17T11:37:57.689Z,11.60
2018-12-17T11:40:25.897Z,11.83
2018-12-17T11:42:54.150Z,11.30
2018-12-17T11:45:24.017Z,11.40
2018-12-17T11:47:52.246Z,10.37
2018-12-17T11:50:21.906Z,10.00
2018-12-17T11:52:51.736Z,9.80
2018-12-17T11:55:20.189Z,9.87
2018-12-17T11:58:10.577Z,8.70
2018-12-17T12:00:40.053Z,9.20
2018-12-17T12:03:08.259Z,8.90
2018-12-17T12:05:37.958Z,9.60
2018-12-17T12:08:06.169Z,9.40
2018-12-17T12:10:35.830Z,9.27
2018-12-17T12:13:04.154Z,9.40
2018-12-17T12:15:32.514Z,9.00
2018-12-17T12:18:00.852Z,9.63
2018-12-17T12:20:29.218Z,8.70
2018-12-17T12:22:57.418Z,8.83
2018-12-17T12:25:25.654Z,9.93
2018-12-17T12:27:53.866Z,8.00
2018-12-17T12:30:23.520Z,9.80
2018-12-17T12:32:51.731Z,9.07
2018-12-17T12:35:21.537Z,7.87
2018-12-17T12:37:51.163Z,8.50
2018-12-17T12:40:19.399Z,9.60
2018-12-17T12:42:51.806Z,8.97
2018-12-17T12:45:19.398Z,9.57
2018-12-17T12:47:49.159Z,9.00
2018-12-17T12:50:17.400Z,10.00
2018-12-17T12:52:47.212Z,9.00
2018-12-17T12:55:16.031Z,10.47
2018-12-17T12:57:45.758Z,8.53
2018-12-17T13:00:14.790Z,9.73
2018-12-17T13:02:45.022Z,10.27
2018-12-17T13:05:13.683Z,9.53
2018-12-17T13:07:43.613Z,9.57
2018-12-17T13:10:13.254Z,10.47
2018-12-17T13:12:43.238Z,9.60
2018-12-17T13:15:12.335Z,9.50
2018-12-17T13:17:41.971Z,9.60
2018-12-17T13:20:10.295Z,9.83
2018-12-17T13:22:39.965Z,10.40
2018-12-17T13:25:10.216Z,11.17
2018-12-17T13:27:39.777Z,10.60
2018-12-17T13:30:08.510Z,10.07
2018-12-17T13:32:38.169Z,10.07
2018-12-17T13:35:06.369Z,11.60
2018-12-17T13:37:36.030Z,11.60
2018-12-17T13:40:06.144Z,12.30
2018-12-17T13:42:36.018Z,10.57
2018-12-17T13:45:05.370Z,18.57
2018-12-17T13:47:35.126Z,13.17
2018-12-17T13:53:10.067Z,10.57
2018-12-17T13:55:38.276Z,10.37
2018-12-17T13:58:06.639Z,10.20
2018-12-17T14:00:34.857Z,12.47
2018-12-17T14:03:03.097Z,11.30
2018-12-17T14:05:32.831Z,11.23
2018-12-17T14:08:01.098Z,10.60
2018-12-17T14:13:27.662Z,11.60
2018-12-17T14:15:57.872Z,10.27
2018-12-17T14:18:31.875Z,10.77
2018-12-17T14:21:05.745Z,11.67
2018-12-17T14:23:33.990Z,10.20
2018-12-17T14:26:03.625Z,10.50
2018-12-17T14:28:31.890Z,11.37
2018-12-17T14:31:01.621Z,11.00
2018-12-17T14:33:29.991Z,11.87
2018-12-17T14:36:12.877Z,10.60
2018-12-17T14:38:41.129Z,10.67
2018-12-17T14:41:10.553Z,11.53
2018-12-17T14:43:38.795Z,11.30
2018-12-17T14:46:08.446Z,10.23
2018-12-17T14:48:36.690Z,10.30
2018-12-17T14:51:06.217Z,10.67
2018-12-17T14:53:34.463Z,9.87
2018-12-17T14:56:04.003Z,10.90
2018-12-17T14:58:32.362Z,11.07
2018-12-17T15:01:01.885Z,9.10
2018-12-17T15:03:30.245Z,11.00
2018-12-17T15:05:58.449Z,10.30
2018-12-17T15:08:26.675Z,10.90
2018-12-17T15:10:54.919Z,11.63
2018-12-17T15:13:23.145Z,10.10
2018-12-17T15:15:53.282Z,11.50
2018-12-17T15:18:21.872Z,9.30
2018-12-17T15:20:52.110Z,10.00
2018-12-17T15:23:21.030Z,10.03
2018-12-17T15:25:50.564Z,11.70
2018-12-17T15:28:18.810Z,11.80
2018-12-17T15:30:48.523Z,10.73
2018-12-17T15:33:16.766Z,11.77
2018-12-17T15:35:45.016Z,13.73
2018-12-17T15:38:14.189Z,15.33
2018-12-17T15:40:42.393Z,12.23
2018-12-17T15:43:10.593Z,15.23
2018-12-17T15:45:38.838Z,13.73
2018-12-17T15:48:07.127Z,26.43
2018-12-17T15:50:35.426Z,17.20
2018-12-17T15:53:03.695Z,88.60
2018-12-17T15:55:31.965Z,14.20
2018-12-17T15:58:01.997Z,14.10
2018-12-17T16:00:30.366Z,14.83
2018-12-17T16:02:58.597Z,14.90
2018-12-17T16:05:27.022Z,45.73
2018-12-17T16:07:55.230Z,19.15
2018-12-17T16:10:24.910Z,46.87
2018-12-17T16:12:53.123Z,21.63
2018-12-17T16:15:22.899Z,19.70
2018-12-17T16:17:51.098Z,15.30
2018-12-17T16:20:20.871Z,14.50
2018-12-17T16:22:50.401Z,15.27
2018-12-17T16:25:18.666Z,36.10
2018-12-17T16:27:48.386Z,15.50
2018-12-17T16:30:16.632Z,22.47
2018-12-17T16:32:46.264Z,24.18
2018-12-17T16:35:14.503Z,15.38
2018-12-17T16:37:44.443Z,20.20
2018-12-17T16:40:12.689Z,37.50
2018-12-17T16:42:42.354Z,25.52
2018-12-17T16:45:10.591Z,22.53
2018-12-17T16:47:40.836Z,19.77
2018-12-17T16:50:09.387Z,17.42
2018-12-17T16:52:39.017Z,22.02
2018-12-17T16:55:07.234Z,20.48
2018-12-17T16:57:36.897Z,27.07
2018-12-17T17:00:07.406Z,17.00
2018-12-17T17:02:37.668Z,22.27
2018-12-17T17:05:05.897Z,38.37
2018-12-17T17:07:35.570Z,16.77
2018-12-17T17:10:06.690Z,16.70
2018-12-17T17:12:36.361Z,15.10
2018-12-17T17:15:06.796Z,13.90
2018-12-17T17:17:36.564Z,12.30
2018-12-17T17:20:05.971Z,19.17
2018-12-17T17:22:35.526Z,18.60
2018-12-17T17:25:04.649Z,13.93
2018-12-17T17:27:34.319Z,14.30
2018-12-17T17:30:02.550Z,29.50
2018-12-17T17:32:33.415Z,14.47
2018-12-17T17:35:01.665Z,18.83
2018-12-17T17:37:32.087Z,23.47
2018-12-17T17:40:00.310Z,17.30
2018-12-17T17:42:30.569Z,16.97
2018-12-17T17:44:58.850Z,13.07
2018-12-17T17:47:28.969Z,12.23
2018-12-17T17:49:57.345Z,11.77
2018-12-17T17:52:27.010Z,13.93
2018-12-17T17:54:55.339Z,13.80
2018-12-17T17:57:25.208Z,12.77
2018-12-17T17:59:53.537Z,15.90
2018-12-17T18:02:21.782Z,16.50
2018-12-17T18:04:49.987Z,31.60
2018-12-17T18:07:18.239Z,20.77
2018-12-17T18:09:46.583Z,17.30
2018-12-17T18:12:16.253Z,15.70
2018-12-17T18:14:44.495Z,15.53
2018-12-17T18:17:14.264Z,26.53
2018-12-17T18:19:42.480Z,24.83
2018-12-17T18:22:12.042Z,24.10
2018-12-17T18:24:40.258Z,18.53
2018-12-17T18:27:10.073Z,21.10
2018-12-17T18:29:38.280Z,17.47
2018-12-17T18:32:08.017Z,17.87
2018-12-17T18:34:36.470Z,18.83
2018-12-17T18:37:04.685Z,16.33
2018-12-17T18:39:33.240Z,16.60
2018-12-17T18:42:01.459Z,15.07
2018-12-17T18:44:29.723Z,19.83
2018-12-17T18:46:57.941Z,15.90
2018-12-17T18:49:26.328Z,18.83
2018-12-17T18:51:54.533Z,19.97
2018-12-17T18:54:22.835Z,18.77
2018-12-17T18:56:52.490Z,17.80
2018-12-17T18:59:20.734Z,19.27
2018-12-17T19:01:48.958Z,18.80
2018-12-17T19:04:17.234Z,20.40
2018-12-17T19:06:45.455Z,17.20
2018-12-17T19:09:13.755Z,23.73
2018-12-17T19:11:44.079Z,17.97
2018-12-17T19:14:12.450Z,25.70
2018-12-17T19:16:40.810Z,18.73
2018-12-17T19:19:09.421Z,18.93
2018-12-17T19:21:37.784Z,19.73
2018-12-17T19:24:06.164Z,17.90
2018-12-17T19:26:35.698Z,18.13
2018-12-17T19:29:05.670Z,18.55
2018-12-17T19:31:34.752Z,18.60
2018-12-17T19:34:04.518Z,17.52
2018-12-17T19:36:34.373Z,19.20
2018-12-17T19:39:02.811Z,16.77
2018-12-17T19:41:33.125Z,18.80
2018-12-17T19:44:02.068Z,18.40
2018-12-17T19:46:31.120Z,19.05
2018-12-17T19:48:59.347Z,17.20
2018-12-17T19:51:28.907Z,19.33
2018-12-17T19:53:57.251Z,17.73
2018-12-17T19:56:26.818Z,18.77
2018-12-17T19:58:55.067Z,20.32
2018-12-17T20:01:23.322Z,17.55
2018-12-17T20:03:51.565Z,19.30
2018-12-17T20:06:19.804Z,19.02
2018-12-17T20:08:48.235Z,21.48
2018-12-17T20:11:16.516Z,18.77
2018-12-17T20:13:44.956Z,19.87
2018-12-17T20:16:14.542Z,20.08
2018-12-17T20:18:42.773Z,22.67
2018-12-17T20:21:11.016Z,19.77
2018-12-17T20:23:39.243Z,20.50
2018-12-17T20:26:08.925Z,21.48
2018-12-17T20:28:37.200Z,21.75
2018-12-17T20:31:05.444Z,23.38
2018-12-17T20:33:33.697Z,21.60
2018-12-17T20:36:03.281Z,23.05
2018-12-17T20:38:31.618Z,21.45
2018-12-17T20:40:59.853Z,19.98
2018-12-17T20:43:28.054Z,22.23
2018-12-17T20:45:56.438Z,20.82
2018-12-17T20:48:24.646Z,20.62
2018-12-17T20:50:54.219Z,21.73
2018-12-17T20:53:22.430Z,22.30
2018-12-17T20:55:50.698Z,22.00
2018-12-17T20:58:18.921Z,20.80
2018-12-17T21:00:48.470Z,21.02
2018-12-17T21:03:16.718Z,21.37
2018-12-17T21:05:46.272Z,21.68
2018-12-17T21:08:14.533Z,21.90
2018-12-17T21:10:42.758Z,22.50
2018-12-17T21:13:11.225Z,20.92
2018-12-17T21:15:41.165Z,21.40
2018-12-17T21:18:09.529Z,22.58
2018-12-17T21:20:39.379Z,20.20
2018-12-17T21:23:07.724Z,19.93
2018-12-17T21:25:37.569Z,19.30
2018-12-17T21:28:05.838Z,19.40
2018-12-17T21:30:35.481Z,17.82
2018-12-17T21:33:06.792Z,17.90
2018-12-17T21:35:35.338Z,17.70
2018-12-17T21:38:03.576Z,18.77
2018-12-17T21:40:31.794Z,18.17
2018-12-17T21:43:00.041Z,17.02
2018-12-17T21:45:29.882Z,17.70
2018-12-17T21:47:58.154Z,18.35
2018-12-17T21:50:26.491Z,17.70
2018-12-17T21:52:54.746Z,17.60
2018-12-17T21:55:24.407Z,17.62
2018-12-17T21:57:52.689Z,17.77
2018-12-17T22:00:20.903Z,20.00
2018-12-17T22:02:50.691Z,18.82
2018-12-17T22:05:18.937Z,19.30
2018-12-17T22:07:48.509Z,18.70
2018-12-17T22:13:11.357Z,18.07
2018-12-17T22:15:39.572Z,18.70
2018-12-17T22:18:07.958Z,19.73
2018-12-17T22:20:36.225Z,18.65
2018-12-17T22:23:04.814Z,18.00
2018-12-17T22:25:33.116Z,19.27
2018-12-17T22:28:01.454Z,19.00
2018-12-17T22:30:29.823Z,17.50
2018-12-17T22:32:58.226Z,20.00
2018-12-17T22:35:26.500Z,18.23
2018-12-17T22:37:54.721Z,18.63
2018-12-17T22:40:24.500Z,17.80
2018-12-17T22:42:52.821Z,17.60
2018-12-17T22:45:21.174Z,16.83
2018-12-17T22:47:51.091Z,17.30
2018-12-17T22:50:19.645Z,16.70
2018-12-17T22:52:49.201Z,17.57
2018-12-17T22:55:17.462Z,17.13
2018-12-17T22:57:47.018Z,15.43
2018-12-17T23:00:15.285Z,17.00
2018-12-17T23:02:45.590Z,16.60
2018-12-17T23:05:15.852Z,18.57
2018-12-17T23:07:45.929Z,17.30
2018-12-17T23:10:26.239Z,20.47
2018-12-17T23:13:06.507Z,19.43
2018-12-17T23:15:48.228Z,18.73
2018-12-17T23:18:16.167Z,17.63
2018-12-17T23:20:45.725Z,17.67
2018-12-17T23:23:14.079Z,17.57
2018-12-17T23:25:42.650Z,17.50
2018-12-17T23:28:11.590Z,18.23
2018-12-17T23:30:39.922Z,16.15
2018-12-17T23:33:08.151Z,18.00
2018-12-17T23:35:36.561Z,16.80
2018-12-17T23:38:05.357Z,18.07
2018-12-17T23:40:33.635Z,18.07
2018-12-17T23:43:01.908Z,18.20
2018-12-17T23:45:32.205Z,17.50
2018-12-17T23:48:02.535Z,18.43
2018-12-17T23:50:30.785Z,16.60
2018-12-17T23:52:59.627Z,16.90
2018-12-17T23:55:28.082Z,19.40
2018-12-17T23:57:56.399Z,17.60
